sensor_id;sensor_type;location;lat;lon;timestamp;P1;durP1;ratioP1;P2;durP2;ratioP2
24663;SDS011;12791;50.992;13.788;2023-08-08T00:02:09;3.63;;;1.60;;
24663;SDS011;12791;50.992;13.788;2023-08-08T00:04:35;3.42;;;1.27;;
24663;SDS011;12791;50.992;13.788;2023-08-08T00:07:03;1.88;;;1.52;;
24663;SDS011;12791;50.992;13.788;2023-08-08T00:09:31;3.10;;;1.70;;
24663;SDS011;12791;50.992;13.788;2023-08-08T00:11:57;2.58;;;1.50;;
24663;SDS011;12791;50.992;13.788;2023-08-08T00:14:24;3.03;;;1.52;;
24663;SDS011;12791;50.992;13.788;2023-08-08T00:16:51;3.85;;;1.42;;
24663;SDS011;12791;50.992;13.788;2023-08-08T00:19:18;4.47;;;1.90;;
24663;SDS011;12791;50.992;13.788;2023-08-08T00:21:45;4.15;;;1.60;;
24663;SDS011;12791;50.992;13.788;2023-08-08T00:24:13;1.67;;;1.35;;
24663;SDS011;12791;50.992;13.788;2023-08-08T00:26:39;1.50;;;1.15;;
24663;SDS011;12791;50.992;13.788;2023-08-08T00:29:06;4.05;;;1.50;;
24663;SDS011;12791;50.992;13.788;2023-08-08T00:31:33;3.13;;;1.77;;
24663;SDS011;12791;50.992;13.788;2023-08-08T00:33:59;1.40;;;1.27;;
24663;SDS011;12791;50.992;13.788;2023-08-08T00:36:26;4.55;;;1.50;;
24663;SDS011;12791;50.992;13.788;2023-08-08T00:38:53;4.53;;;1.48;;
24663;SDS011;12791;50.992;13.788;2023-08-08T00:41:21;2.33;;;1.50;;
24663;SDS011;12791;50.992;13.788;2023-08-08T00:43:47;2.05;;;1.10;;
24663;SDS011;12791;50.992;13.788;2023-08-08T00:46:15;3.00;;;1.00;;
24663;SDS011;12791;50.992;13.788;2023-08-08T00:48:43;2.55;;;1.35;;
24663;SDS011;12791;50.992;13.788;2023-08-08T00:51:09;3.47;;;1.67;;
24663;SDS011;12791;50.992;13.788;2023-08-08T00:53:36;2.33;;;1.40;;
24663;SDS011;12791;50.992;13.788;2023-08-08T00:56:03;1.70;;;1.30;;
24663;SDS011;12791;50.992;13.788;2023-08-08T00:58:33;2.50;;;1.30;;
24663;SDS011;12791;50.992;13.788;2023-08-08T01:00:59;2.40;;;1.50;;
24663;SDS011;12791;50.992;13.788;2023-08-08T01:03:26;2.03;;;1.55;;
24663;SDS011;12791;50.992;13.788;2023-08-08T01:05:54;2.03;;;1.30;;
24663;SDS011;12791;50.992;13.788;2023-08-08T01:08:27;4.70;;;1.55;;
24663;SDS011;12791;50.992;13.788;2023-08-08T01:11:00;2.95;;;1.30;;
24663;SDS011;12791;50.992;13.788;2023-08-08T01:13:28;2.17;;;1.33;;
24663;SDS011;12791;50.992;13.788;2023-08-08T01:15:59;3.08;;;1.45;;
24663;SDS011;12791;50.992;13.788;2023-08-08T01:18:28;2.95;;;1.60;;
24663;SDS011;12791;50.992;13.788;2023-08-08T01:20:55;2.17;;;1.27;;
24663;SDS011;12791;50.992;13.788;2023-08-08T01:23:23;4.50;;;1.30;;
24663;SDS011;12791;50.992;13.788;2023-08-08T01:25:56;5.15;;;1.48;;
24663;SDS011;12791;50.992;13.788;2023-08-08T01:28:24;2.97;;;1.50;;
24663;SDS011;12791;50.992;13.788;2023-08-08T01:30:51;3.40;;;1.50;;
24663;SDS011;12791;50.992;13.788;2023-08-08T01:33:18;1.75;;;1.40;;
24663;SDS011;12791;50.992;13.788;2023-08-08T01:35:46;2.40;;;1.45;;
24663;SDS011;12791;50.992;13.788;2023-08-08T01:38:17;1.65;;;1.55;;
24663;SDS011;12791;50.992;13.788;2023-08-08T01:40:49;2.42;;;1.20;;
24663;SDS011;12791;50.992;13.788;2023-08-08T01:43:17;3.30;;;1.80;;
24663;SDS011;12791;50.992;13.788;2023-08-08T01:45:46;3.42;;;1.48;;
24663;SDS011;12791;50.992;13.788;2023-08-08T01:48:13;5.88;;;2.00;;
24663;SDS011;12791;50.992;13.788;2023-08-08T01:50:40;2.38;;;1.23;;
24663;SDS011;12791;50.992;13.788;2023-08-08T01:53:06;2.72;;;1.30;;
24663;SDS011;12791;50.992;13.788;2023-08-08T01:55:33;3.60;;;1.48;;
24663;SDS011;12791;50.992;13.788;2023-08-08T01:58:00;3.13;;;1.40;;
24663;SDS011;12791;50.992;13.788;2023-08-08T02:00:28;2.35;;;1.38;;
24663;SDS011;12791;50.992;13.788;2023-08-08T02:02:54;3.15;;;1.40;;
24663;SDS011;12791;50.992;13.788;2023-08-08T02:05:21;2.30;;;1.45;;
24663;SDS011;12791;50.992;13.788;2023-08-08T02:07:48;2.53;;;1.60;;
24663;SDS011;12791;50.992;13.788;2023-08-08T02:10:14;2.45;;;1.30;;
24663;SDS011;12791;50.992;13.788;2023-08-08T02:12:41;1.95;;;1.30;;
24663;SDS011;12791;50.992;13.788;2023-08-08T02:15:08;2.70;;;1.30;;
24663;SDS011;12791;50.992;13.788;2023-08-08T02:17:37;4.53;;;1.77;;
24663;SDS011;12791;50.992;13.788;2023-08-08T02:20:05;1.52;;;1.40;;
24663;SDS011;12791;50.992;13.788;2023-08-08T02:22:32;2.00;;;1.38;;
24663;SDS011;12791;50.992;13.788;2023-08-08T02:24:59;5.05;;;1.73;;
24663;SDS011;12791;50.992;13.788;2023-08-08T02:27:26;1.90;;;1.23;;
24663;SDS011;12791;50.992;13.788;2023-08-08T02:29:53;2.20;;;1.40;;
24663;SDS011;12791;50.992;13.788;2023-08-08T02:32:19;3.20;;;1.35;;
24663;SDS011;12791;50.992;13.788;2023-08-08T02:34:47;2.90;;;1.30;;
24663;SDS011;12791;50.992;13.788;2023-08-08T02:37:14;1.90;;;1.48;;
24663;SDS011;12791;50.992;13.788;2023-08-08T02:39:41;1.95;;;1.33;;
24663;SDS011;12791;50.992;13.788;2023-08-08T02:42:08;2.63;;;1.35;;
24663;SDS011;12791;50.992;13.788;2023-08-08T02:44:35;2.33;;;1.13;;
24663;SDS011;12791;50.992;13.788;2023-08-08T02:47:02;2.28;;;1.27;;
24663;SDS011;12791;50.992;13.788;2023-08-08T02:49:28;3.08;;;1.50;;
24663;SDS011;12791;50.992;13.788;2023-08-08T02:51:56;2.83;;;1.52;;
24663;SDS011;12791;50.992;13.788;2023-08-08T02:54:23;2.25;;;1.27;;
24663;SDS011;12791;50.992;13.788;2023-08-08T02:56:50;1.88;;;1.27;;
24663;SDS011;12791;50.992;13.788;2023-08-08T02:59:16;1.67;;;1.23;;
24663;SDS011;12791;50.992;13.788;2023-08-08T03:01:43;2.83;;;1.30;;
24663;SDS011;12791;50.992;13.788;2023-08-08T03:04:10;3.45;;;1.30;;
24663;SDS011;12791;50.992;13.788;2023-08-08T03:06:36;2.35;;;1.45;;
24663;SDS011;12791;50.992;13.788;2023-08-08T03:09:04;2.53;;;1.20;;
24663;SDS011;12791;50.992;13.788;2023-08-08T03:11:32;2.03;;;1.30;;
24663;SDS011;12791;50.992;13.788;2023-08-08T03:13:58;2.13;;;0.98;;
24663;SDS011;12791;50.992;13.788;2023-08-08T03:16:25;2.97;;;1.58;;
24663;SDS011;12791;50.992;13.788;2023-08-08T03:18:52;1.80;;;0.93;;
24663;SDS011;12791;50.992;13.788;2023-08-08T03:21:18;2.33;;;1.30;;
24663;SDS011;12791;50.992;13.788;2023-08-08T03:23:45;1.63;;;1.27;;
24663;SDS011;12791;50.992;13.788;2023-08-08T03:26:13;1.23;;;1.00;;
24663;SDS011;12791;50.992;13.788;2023-08-08T03:28:40;2.05;;;1.10;;
24663;SDS011;12791;50.992;13.788;2023-08-08T03:31:06;3.40;;;1.40;;
24663;SDS011;12791;50.992;13.788;2023-08-08T03:33:33;1.23;;;1.10;;
24663;SDS011;12791;50.992;13.788;2023-08-08T03:36:00;2.10;;;1.40;;
24663;SDS011;12791;50.992;13.788;2023-08-08T03:38:26;1.80;;;1.50;;
24663;SDS011;12791;50.992;13.788;2023-08-08T03:40:53;1.63;;;1.30;;
24663;SDS011;12791;50.992;13.788;2023-08-08T03:43:21;3.83;;;1.13;;
24663;SDS011;12791;50.992;13.788;2023-08-08T03:45:48;2.70;;;1.52;;
24663;SDS011;12791;50.992;13.788;2023-08-08T03:48:15;2.53;;;1.25;;
24663;SDS011;12791;50.992;13.788;2023-08-08T03:50:41;3.00;;;1.23;;
24663;SDS011;12791;50.992;13.788;2023-08-08T03:53:08;1.55;;;1.30;;
24663;SDS011;12791;50.992;13.788;2023-08-08T03:55:35;3.58;;;1.40;;
24663;SDS011;12791;50.992;13.788;2023-08-08T03:58:01;1.55;;;1.20;;
24663;SDS011;12791;50.992;13.788;2023-08-08T04:00:29;1.88;;;1.17;;
24663;SDS011;12791;50.992;13.788;2023-08-08T04:02:56;1.20;;;1.08;;
24663;SDS011;12791;50.992;13.788;2023-08-08T04:05:23;1.48;;;1.00;;
24663;SDS011;12791;50.992;13.788;2023-08-08T04:07:50;2.00;;;1.20;;
24663;SDS011;12791;50.992;13.788;2023-08-08T04:10:16;1.20;;;0.95;;
24663;SDS011;12791;50.992;13.788;2023-08-08T04:12:43;1.73;;;1.25;;
24663;SDS011;12791;50.992;13.788;2023-08-08T04:15:10;1.25;;;1.10;;
24663;SDS011;12791;50.992;13.788;2023-08-08T04:17:38;1.55;;;1.10;;
24663;SDS011;12791;50.992;13.788;2023-08-08T04:20:05;1.77;;;1.13;;
24663;SDS011;12791;50.992;13.788;2023-08-08T04:22:32;3.20;;;1.23;;
24663;SDS011;12791;50.992;13.788;2023-08-08T04:25:00;3.00;;;1.30;;
24663;SDS011;12791;50.992;13.788;2023-08-08T04:27:27;3.22;;;1.42;;
24663;SDS011;12791;50.992;13.788;2023-08-08T04:29:54;2.15;;;1.20;;
24663;SDS011;12791;50.992;13.788;2023-08-08T04:32:20;2.38;;;1.30;;
24663;SDS011;12791;50.992;13.788;2023-08-08T04:34:48;2.60;;;1.23;;
24663;SDS011;12791;50.992;13.788;2023-08-08T04:37:15;1.15;;;1.02;;
24663;SDS011;12791;50.992;13.788;2023-08-08T04:39:42;2.05;;;1.10;;
24663;SDS011;12791;50.992;13.788;2023-08-08T04:42:08;1.30;;;1.20;;
24663;SDS011;12791;50.992;13.788;2023-08-08T04:44:35;1.70;;;1.35;;
24663;SDS011;12791;50.992;13.788;2023-08-08T04:47:02;1.45;;;1.00;;
24663;SDS011;12791;50.992;13.788;2023-08-08T04:49:29;1.20;;;1.10;;
24663;SDS011;12791;50.992;13.788;2023-08-08T04:51:57;0.90;;;0.90;;
24663;SDS011;12791;50.992;13.788;2023-08-08T04:54:23;1.35;;;1.20;;
24663;SDS011;12791;50.992;13.788;2023-08-08T04:56:50;2.00;;;1.20;;
24663;SDS011;12791;50.992;13.788;2023-08-08T04:59:17;2.03;;;1.83;;
24663;SDS011;12791;50.992;13.788;2023-08-08T05:01:43;1.35;;;1.10;;
24663;SDS011;12791;50.992;13.788;2023-08-08T05:04:10;1.35;;;1.25;;
24663;SDS011;12791;50.992;13.788;2023-08-08T05:06:37;2.50;;;1.23;;
24663;SDS011;12791;50.992;13.788;2023-08-08T05:09:05;2.30;;;1.05;;
24663;SDS011;12791;50.992;13.788;2023-08-08T05:11:34;5.18;;;1.55;;
24663;SDS011;12791;50.992;13.788;2023-08-08T05:14:01;4.93;;;1.30;;
24663;SDS011;12791;50.992;13.788;2023-08-08T05:16:28;2.15;;;1.10;;
24663;SDS011;12791;50.992;13.788;2023-08-08T05:18:54;1.55;;;1.30;;
24663;SDS011;12791;50.992;13.788;2023-08-08T05:21:21;1.20;;;1.10;;
24663;SDS011;12791;50.992;13.788;2023-08-08T05:23:48;1.65;;;1.10;;
24663;SDS011;12791;50.992;13.788;2023-08-08T05:26:16;1.80;;;1.23;;
24663;SDS011;12791;50.992;13.788;2023-08-08T05:28:43;1.98;;;1.48;;
24663;SDS011;12791;50.992;13.788;2023-08-08T05:31:10;3.78;;;1.23;;
24663;SDS011;12791;50.992;13.788;2023-08-08T05:33:36;1.45;;;1.20;;
24663;SDS011;12791;50.992;13.788;2023-08-08T05:36:03;1.17;;;0.98;;
24663;SDS011;12791;50.992;13.788;2023-08-08T05:38:30;1.75;;;1.20;;
24663;SDS011;12791;50.992;13.788;2023-08-08T05:40:57;2.13;;;1.20;;
24663;SDS011;12791;50.992;13.788;2023-08-08T05:43:25;1.35;;;1.00;;
24663;SDS011;12791;50.992;13.788;2023-08-08T05:45:52;2.20;;;1.30;;
24663;SDS011;12791;50.992;13.788;2023-08-08T05:48:19;1.25;;;1.15;;
24663;SDS011;12791;50.992;13.788;2023-08-08T05:50:46;2.30;;;1.10;;
24663;SDS011;12791;50.992;13.788;2023-08-08T05:53:12;2.35;;;1.08;;
24663;SDS011;12791;50.992;13.788;2023-08-08T05:55:40;2.10;;;1.20;;
24663;SDS011;12791;50.992;13.788;2023-08-08T05:58:07;1.58;;;1.13;;
24663;SDS011;12791;50.992;13.788;2023-08-08T06:00:35;2.13;;;1.00;;
24663;SDS011;12791;50.992;13.788;2023-08-08T06:03:03;2.35;;;1.40;;
24663;SDS011;12791;50.992;13.788;2023-08-08T06:05:30;1.25;;;1.00;;
24663;SDS011;12791;50.992;13.788;2023-08-08T06:07:56;3.53;;;1.30;;
24663;SDS011;12791;50.992;13.788;2023-08-08T06:10:23;2.25;;;1.20;;
24663;SDS011;12791;50.992;13.788;2023-08-08T06:12:50;2.53;;;1.30;;
24663;SDS011;12791;50.992;13.788;2023-08-08T06:15:17;2.35;;;1.30;;
24663;SDS011;12791;50.992;13.788;2023-08-08T06:17:45;2.45;;;1.45;;
24663;SDS011;12791;50.992;13.788;2023-08-08T06:20:12;1.33;;;1.00;;
24663;SDS011;12791;50.992;13.788;2023-08-08T06:22:38;1.27;;;1.17;;
24663;SDS011;12791;50.992;13.788;2023-08-08T06:25:05;2.13;;;0.95;;
24663;SDS011;12791;50.992;13.788;2023-08-08T06:27:32;1.50;;;1.20;;
24663;SDS011;12791;50.992;13.788;2023-08-08T06:29:59;1.30;;;1.05;;
24663;SDS011;12791;50.992;13.788;2023-08-08T06:32:28;1.35;;;1.25;;
24663;SDS011;12791;50.992;13.788;2023-08-08T06:34:56;2.50;;;0.95;;
24663;SDS011;12791;50.992;13.788;2023-08-08T06:37:23;0.88;;;0.85;;
24663;SDS011;12791;50.992;13.788;2023-08-08T06:39:49;2.55;;;1.23;;
24663;SDS011;12791;50.992;13.788;2023-08-08T06:42:16;1.38;;;0.80;;
24663;SDS011;12791;50.992;13.788;2023-08-08T06:44:43;3.03;;;1.30;;
24663;SDS011;12791;50.992;13.788;2023-08-08T06:47:10;1.75;;;0.77;;
24663;SDS011;12791;50.992;13.788;2023-08-08T06:49:37;2.28;;;0.95;;
24663;SDS011;12791;50.992;13.788;2023-08-08T06:52:06;1.52;;;1.10;;
24663;SDS011;12791;50.992;13.788;2023-08-08T06:54:32;1.67;;;1.15;;
24663;SDS011;12791;50.992;13.788;2023-08-08T06:56:59;1.30;;;1.00;;
24663;SDS011;12791;50.992;13.788;2023-08-08T06:59:27;1.30;;;0.90;;
24663;SDS011;12791;50.992;13.788;2023-08-08T07:01:53;2.05;;;1.00;;
24663;SDS011;12791;50.992;13.788;2023-08-08T07:04:21;2.42;;;1.20;;
24663;SDS011;12791;50.992;13.788;2023-08-08T07:06:48;1.65;;;1.23;;
24663;SDS011;12791;50.992;13.788;2023-08-08T07:09:16;2.15;;;1.00;;
24663;SDS011;12791;50.992;13.788;2023-08-08T07:11:43;2.42;;;1.30;;
24663;SDS011;12791;50.992;13.788;2023-08-08T07:14:10;2.20;;;0.90;;
24663;SDS011;12791;50.992;13.788;2023-08-08T07:16:36;3.30;;;0.95;;
24663;SDS011;12791;50.992;13.788;2023-08-08T07:19:03;2.97;;;0.90;;
24663;SDS011;12791;50.992;13.788;2023-08-08T07:21:31;2.47;;;1.08;;
24663;SDS011;12791;50.992;13.788;2023-08-08T07:23:57;1.67;;;0.70;;
24663;SDS011;12791;50.992;13.788;2023-08-08T07:26:25;2.42;;;1.10;;
24663;SDS011;12791;50.992;13.788;2023-08-08T07:28:52;1.58;;;0.85;;
24663;SDS011;12791;50.992;13.788;2023-08-08T07:31:19;2.25;;;1.00;;
24663;SDS011;12791;50.992;13.788;2023-08-08T07:33:45;1.77;;;0.98;;
24663;SDS011;12791;50.992;13.788;2023-08-08T07:36:12;1.02;;;1.02;;
24663;SDS011;12791;50.992;13.788;2023-08-08T07:38:39;3.13;;;0.95;;
24663;SDS011;12791;50.992;13.788;2023-08-08T07:41:06;1.42;;;1.20;;
24663;SDS011;12791;50.992;13.788;2023-08-08T07:43:34;1.58;;;1.00;;
24663;SDS011;12791;50.992;13.788;2023-08-08T07:46:00;1.88;;;1.15;;
24663;SDS011;12791;50.992;13.788;2023-08-08T07:48:27;1.83;;;0.90;;
24663;SDS011;12791;50.992;13.788;2023-08-08T07:50:54;2.67;;;1.08;;
24663;SDS011;12791;50.992;13.788;2023-08-08T07:53:20;1.55;;;1.10;;
24663;SDS011;12791;50.992;13.788;2023-08-08T07:55:47;1.05;;;0.93;;
24663;SDS011;12791;50.992;13.788;2023-08-08T07:58:14;1.55;;;0.82;;
24663;SDS011;12791;50.992;13.788;2023-08-08T08:00:42;2.25;;;1.10;;
24663;SDS011;12791;50.992;13.788;2023-08-08T08:03:09;1.55;;;0.98;;
24663;SDS011;12791;50.992;13.788;2023-08-08T08:05:36;2.40;;;1.25;;
24663;SDS011;12791;50.992;13.788;2023-08-08T08:08:03;1.45;;;0.95;;
24663;SDS011;12791;50.992;13.788;2023-08-08T08:10:30;2.00;;;1.20;;
24663;SDS011;12791;50.992;13.788;2023-08-08T08:12:57;2.15;;;0.82;;
24663;SDS011;12791;50.992;13.788;2023-08-08T08:15:23;1.17;;;1.02;;
24663;SDS011;12791;50.992;13.788;2023-08-08T08:17:51;1.65;;;0.90;;
24663;SDS011;12791;50.992;13.788;2023-08-08T08:20:18;1.08;;;0.75;;
24663;SDS011;12791;50.992;13.788;2023-08-08T08:22:45;1.02;;;0.82;;
24663;SDS011;12791;50.992;13.788;2023-08-08T08:25:12;0.77;;;0.77;;
24663;SDS011;12791;50.992;13.788;2023-08-08T08:27:40;1.30;;;1.17;;
24663;SDS011;12791;50.992;13.788;2023-08-08T08:30:07;1.20;;;0.80;;
24663;SDS011;12791;50.992;13.788;2023-08-08T08:32:35;1.77;;;0.88;;
24663;SDS011;12791;50.992;13.788;2023-08-08T08:35:04;2.97;;;0.90;;
24663;SDS011;12791;50.992;13.788;2023-08-08T08:37:31;1.02;;;0.88;;
24663;SDS011;12791;50.992;13.788;2023-08-08T08:39:58;1.08;;;0.82;;
24663;SDS011;12791;50.992;13.788;2023-08-08T08:42:26;0.80;;;0.80;;
24663;SDS011;12791;50.992;13.788;2023-08-08T08:44:53;1.63;;;0.77;;
24663;SDS011;12791;50.992;13.788;2023-08-08T08:47:24;1.40;;;0.80;;
24663;SDS011;12791;50.992;13.788;2023-08-08T08:49:51;2.42;;;0.80;;
24663;SDS011;12791;50.992;13.788;2023-08-08T08:52:20;2.80;;;1.02;;
24663;SDS011;12791;50.992;13.788;2023-08-08T08:54:47;0.95;;;0.73;;
24663;SDS011;12791;50.992;13.788;2023-08-08T08:57:14;0.70;;;0.70;;
24663;SDS011;12791;50.992;13.788;2023-08-08T08:59:41;1.25;;;0.80;;
24663;SDS011;12791;50.992;13.788;2023-08-08T09:02:09;0.68;;;0.68;;
24663;SDS011;12791;50.992;13.788;2023-08-08T09:04:37;0.93;;;0.60;;
24663;SDS011;12791;50.992;13.788;2023-08-08T09:07:05;3.95;;;0.77;;
24663;SDS011;12791;50.992;13.788;2023-08-08T09:09:34;0.88;;;0.70;;
24663;SDS011;12791;50.992;13.788;2023-08-08T09:12:03;0.85;;;0.68;;
24663;SDS011;12791;50.992;13.788;2023-08-08T09:14:30;1.05;;;0.70;;
24663;SDS011;12791;50.992;13.788;2023-08-08T09:16:57;0.93;;;0.80;;
24663;SDS011;12791;50.992;13.788;2023-08-08T09:19:24;1.38;;;1.08;;
24663;SDS011;12791;50.992;13.788;2023-08-08T09:21:51;1.95;;;0.80;;
24663;SDS011;12791;50.992;13.788;2023-08-08T09:24:18;1.23;;;0.93;;
24663;SDS011;12791;50.992;13.788;2023-08-08T09:26:47;1.85;;;0.90;;
24663;SDS011;12791;50.992;13.788;2023-08-08T09:29:14;2.38;;;1.10;;
24663;SDS011;12791;50.992;13.788;2023-08-08T09:31:41;1.70;;;0.80;;
24663;SDS011;12791;50.992;13.788;2023-08-08T09:34:08;1.17;;;1.08;;
24663;SDS011;12791;50.992;13.788;2023-08-08T09:36:34;0.90;;;0.90;;
24663;SDS011;12791;50.992;13.788;2023-08-08T09:39:02;0.70;;;0.70;;
24663;SDS011;12791;50.992;13.788;2023-08-08T09:41:29;0.80;;;0.80;;
24663;SDS011;12791;50.992;13.788;2023-08-08T09:43:58;1.20;;;1.00;;
24663;SDS011;12791;50.992;13.788;2023-08-08T09:46:26;2.17;;;1.00;;
24663;SDS011;12791;50.992;13.788;2023-08-08T09:48:55;5.57;;;1.20;;
24663;SDS011;12791;50.992;13.788;2023-08-08T09:51:22;2.25;;;0.95;;
24663;SDS011;12791;50.992;13.788;2023-08-08T09:53:49;0.80;;;0.80;;
24663;SDS011;12791;50.992;13.788;2023-08-08T09:56:16;1.77;;;0.90;;
24663;SDS011;12791;50.992;13.788;2023-08-08T09:58:44;1.50;;;1.27;;
24663;SDS011;12791;50.992;13.788;2023-08-08T10:01:13;1.75;;;0.93;;
24663;SDS011;12791;50.992;13.788;2023-08-08T10:03:41;1.70;;;0.95;;
24663;SDS011;12791;50.992;13.788;2023-08-08T10:06:08;2.72;;;1.00;;
24663;SDS011;12791;50.992;13.788;2023-08-08T10:08:35;1.48;;;1.23;;
24663;SDS011;12791;50.992;13.788;2023-08-08T10:11:02;1.13;;;1.05;;
24663;SDS011;12791;50.992;13.788;2023-08-08T10:13:32;1.30;;;0.90;;
24663;SDS011;12791;50.992;13.788;2023-08-08T10:15:59;1.20;;;1.10;;
24663;SDS011;12791;50.992;13.788;2023-08-08T10:18:34;0.93;;;0.90;;
24663;SDS011;12791;50.992;13.788;2023-08-08T10:21:03;1.05;;;0.90;;
24663;SDS011;12791;50.992;13.788;2023-08-08T10:23:34;1.95;;;1.00;;
24663;SDS011;12791;50.992;13.788;2023-08-08T10:26:02;2.05;;;0.88;;
24663;SDS011;12791;50.992;13.788;2023-08-08T10:28:29;1.45;;;0.95;;
24663;SDS011;12791;50.992;13.788;2023-08-08T10:30:59;1.48;;;0.80;;
24663;SDS011;12791;50.992;13.788;2023-08-08T10:33:27;2.90;;;0.90;;
24663;SDS011;12791;50.992;13.788;2023-08-08T10:36:06;1.77;;;0.90;;
24663;SDS011;12791;50.992;13.788;2023-08-08T10:38:40;1.55;;;0.82;;
24663;SDS011;12791;50.992;13.788;2023-08-08T10:41:09;1.80;;;1.05;;
24663;SDS011;12791;50.992;13.788;2023-08-08T10:43:37;1.10;;;1.00;;
24663;SDS011;12791;50.992;13.788;2023-08-08T10:46:05;1.10;;;1.00;;
24663;SDS011;12791;50.992;13.788;2023-08-08T10:48:33;1.50;;;0.90;;
24663;SDS011;12791;50.992;13.788;2023-08-08T10:50:59;2.63;;;0.90;;
24663;SDS011;12791;50.992;13.788;2023-08-08T10:53:28;4.00;;;1.05;;
24663;SDS011;12791;50.992;13.788;2023-08-08T10:55:58;1.90;;;0.75;;
24663;SDS011;12791;50.992;13.788;2023-08-08T10:58:34;1.13;;;0.90;;
24663;SDS011;12791;50.992;13.788;2023-08-08T11:01:02;2.25;;;1.00;;
24663;SDS011;12791;50.992;13.788;2023-08-08T11:03:32;1.67;;;1.00;;
24663;SDS011;12791;50.992;13.788;2023-08-08T11:06:00;1.20;;;0.95;;
24663;SDS011;12791;50.992;13.788;2023-08-08T11:08:29;0.82;;;0.82;;
24663;SDS011;12791;50.992;13.788;2023-08-08T11:10:57;0.73;;;0.73;;
24663;SDS011;12791;50.992;13.788;2023-08-08T11:13:24;1.73;;;1.02;;
24663;SDS011;12791;50.992;13.788;2023-08-08T11:15:50;1.38;;;1.02;;
24663;SDS011;12791;50.992;13.788;2023-08-08T11:18:17;1.20;;;0.90;;
24663;SDS011;12791;50.992;13.788;2023-08-08T11:20:44;1.27;;;1.00;;
24663;SDS011;12791;50.992;13.788;2023-08-08T11:23:11;1.55;;;0.80;;
24663;SDS011;12791;50.992;13.788;2023-08-08T11:25:40;1.48;;;1.00;;
24663;SDS011;12791;50.992;13.788;2023-08-08T11:28:08;1.17;;;0.95;;
24663;SDS011;12791;50.992;13.788;2023-08-08T11:30:36;1.15;;;0.90;;
24663;SDS011;12791;50.992;13.788;2023-08-08T11:33:03;0.80;;;0.80;;
24663;SDS011;12791;50.992;13.788;2023-08-08T11:35:30;1.10;;;0.90;;
24663;SDS011;12791;50.992;13.788;2023-08-08T11:37:59;2.65;;;0.98;;
24663;SDS011;12791;50.992;13.788;2023-08-08T11:40:27;1.17;;;0.82;;
24663;SDS011;12791;50.992;13.788;2023-08-08T11:42:56;0.75;;;0.75;;
24663;SDS011;12791;50.992;13.788;2023-08-08T11:45:23;1.20;;;0.93;;
24663;SDS011;12791;50.992;13.788;2023-08-08T11:47:51;1.33;;;0.88;;
24663;SDS011;12791;50.992;13.788;2023-08-08T11:50:19;1.48;;;0.90;;
24663;SDS011;12791;50.992;13.788;2023-08-08T11:52:48;1.02;;;0.82;;
24663;SDS011;12791;50.992;13.788;2023-08-08T11:55:16;0.70;;;0.70;;
24663;SDS011;12791;50.992;13.788;2023-08-08T11:57:47;0.98;;;0.90;;
24663;SDS011;12791;50.992;13.788;2023-08-08T12:00:15;1.17;;;0.70;;
24663;SDS011;12791;50.992;13.788;2023-08-08T12:02:43;2.47;;;0.80;;
24663;SDS011;12791;50.992;13.788;2023-08-08T12:05:11;0.70;;;0.70;;
24663;SDS011;12791;50.992;13.788;2023-08-08T12:07:41;3.80;;;0.63;;
24663;SDS011;12791;50.992;13.788;2023-08-08T12:10:13;1.38;;;0.85;;
24663;SDS011;12791;50.992;13.788;2023-08-08T12:12:41;1.58;;;0.70;;
24663;SDS011;12791;50.992;13.788;2023-08-08T12:15:08;0.82;;;0.70;;
24663;SDS011;12791;50.992;13.788;2023-08-08T12:17:37;0.77;;;0.70;;
24663;SDS011;12791;50.992;13.788;2023-08-08T12:20:04;1.85;;;0.85;;
24663;SDS011;12791;50.992;13.788;2023-08-08T12:22:33;1.33;;;0.80;;
24663;SDS011;12791;50.992;13.788;2023-08-08T12:25:00;0.75;;;0.75;;
24663;SDS011;12791;50.992;13.788;2023-08-08T12:27:28;0.80;;;0.80;;
24663;SDS011;12791;50.992;13.788;2023-08-08T12:29:55;1.77;;;0.90;;
24663;SDS011;12791;50.992;13.788;2023-08-08T12:32:22;2.50;;;0.77;;
24663;SDS011;12791;50.992;13.788;2023-08-08T12:34:53;1.05;;;0.82;;
24663;SDS011;12791;50.992;13.788;2023-08-08T12:37:20;2.80;;;0.77;;
24663;SDS011;12791;50.992;13.788;2023-08-08T12:39:48;1.42;;;0.80;;
24663;SDS011;12791;50.992;13.788;2023-08-08T12:42:14;0.98;;;0.80;;
24663;SDS011;12791;50.992;13.788;2023-08-08T12:44:41;1.17;;;0.70;;
24663;SDS011;12791;50.992;13.788;2023-08-08T12:47:08;0.82;;;0.82;;
24663;SDS011;12791;50.992;13.788;2023-08-08T12:49:35;0.80;;;0.80;;
24663;SDS011;12791;50.992;13.788;2023-08-08T12:52:03;0.77;;;0.77;;
24663;SDS011;12791;50.992;13.788;2023-08-08T12:54:30;1.13;;;0.90;;
24663;SDS011;12791;50.992;13.788;2023-08-08T12:56:57;1.42;;;0.80;;
24663;SDS011;12791;50.992;13.788;2023-08-08T12:59:24;1.42;;;0.90;;
24663;SDS011;12791;50.992;13.788;2023-08-08T13:01:50;1.92;;;0.80;;
24663;SDS011;12791;50.992;13.788;2023-08-08T13:04:17;0.77;;;0.77;;
24663;SDS011;12791;50.992;13.788;2023-08-08T13:06:44;1.30;;;0.68;;
24663;SDS011;12791;50.992;13.788;2023-08-08T13:09:12;1.02;;;0.93;;
24663;SDS011;12791;50.992;13.788;2023-08-08T13:11:39;1.67;;;0.90;;
24663;SDS011;12791;50.992;13.788;2023-08-08T13:14:06;1.40;;;0.93;;
24663;SDS011;12791;50.992;13.788;2023-08-08T13:16:33;1.98;;;0.80;;
24663;SDS011;12791;50.992;13.788;2023-08-08T13:19:00;0.63;;;0.63;;
24663;SDS011;12791;50.992;13.788;2023-08-08T13:21:26;2.97;;;0.88;;
24663;SDS011;12791;50.992;13.788;2023-08-08T13:23:53;0.60;;;0.60;;
24663;SDS011;12791;50.992;13.788;2023-08-08T13:26:21;0.93;;;0.90;;
24663;SDS011;12791;50.992;13.788;2023-08-08T13:28:48;1.08;;;1.00;;
24663;SDS011;12791;50.992;13.788;2023-08-08T13:31:15;0.90;;;0.88;;
24663;SDS011;12791;50.992;13.788;2023-08-08T13:33:41;1.75;;;0.80;;
24663;SDS011;12791;50.992;13.788;2023-08-08T13:36:08;0.95;;;0.88;;
24663;SDS011;12791;50.992;13.788;2023-08-08T13:38:35;1.15;;;0.82;;
24663;SDS011;12791;50.992;13.788;2023-08-08T13:41:02;0.65;;;0.65;;
24663;SDS011;12791;50.992;13.788;2023-08-08T13:43:30;1.50;;;0.85;;
24663;SDS011;12791;50.992;13.788;2023-08-08T13:45:57;0.77;;;0.73;;
24663;SDS011;12791;50.992;13.788;2023-08-08T13:48:25;1.25;;;1.05;;
24663;SDS011;12791;50.992;13.788;2023-08-08T13:50:52;1.00;;;0.65;;
24663;SDS011;12791;50.992;13.788;2023-08-08T13:53:19;0.73;;;0.73;;
24663;SDS011;12791;50.992;13.788;2023-08-08T13:55:45;0.70;;;0.70;;
24663;SDS011;12791;50.992;13.788;2023-08-08T13:58:12;1.25;;;0.90;;
24663;SDS011;12791;50.992;13.788;2023-08-08T14:00:40;1.63;;;0.98;;
24663;SDS011;12791;50.992;13.788;2023-08-08T14:03:07;0.80;;;0.80;;
24663;SDS011;12791;50.992;13.788;2023-08-08T14:05:33;1.05;;;0.95;;
24663;SDS011;12791;50.992;13.788;2023-08-08T14:08:02;1.60;;;0.95;;
24663;SDS011;12791;50.992;13.788;2023-08-08T14:10:29;2.05;;;0.93;;
24663;SDS011;12791;50.992;13.788;2023-08-08T14:12:56;1.98;;;0.90;;
24663;SDS011;12791;50.992;13.788;2023-08-08T14:15:23;1.35;;;0.70;;
24663;SDS011;12791;50.992;13.788;2023-08-08T14:17:51;1.10;;;1.00;;
24663;SDS011;12791;50.992;13.788;2023-08-08T14:20:18;1.15;;;0.90;;
24663;SDS011;12791;50.992;13.788;2023-08-08T14:22:45;0.80;;;0.80;;
24663;SDS011;12791;50.992;13.788;2023-08-08T14:25:12;0.93;;;0.90;;
24663;SDS011;12791;50.992;13.788;2023-08-08T14:27:39;0.70;;;0.70;;
24663;SDS011;12791;50.992;13.788;2023-08-08T14:30:06;1.20;;;0.82;;
24663;SDS011;12791;50.992;13.788;2023-08-08T14:32:33;1.00;;;0.90;;
24663;SDS011;12791;50.992;13.788;2023-08-08T14:35:01;0.70;;;0.70;;